sensor_id;sensor_type;location;lat;lon;timestamp;pressure;altitude;pressure_sealevel;temperature;humidity
34081;BME280;20358;50.272;19.026;2023-04-06T00:01:01;98641.03;;;-2.15;49.21
34081;BME280;20358;50.272;19.026;2023-04-06T00:04:08;98638.59;;;-2.22;48.72
34081;BME280;20358;50.272;19.026;2023-04-06T00:07:16;98634.44;;;-2.29;49.45
34081;BME280;20358;50.272;19.026;2023-04-06T00:10:23;98628.44;;;-2.31;49.98
34081;BME280;20358;50.272;19.026;2023-04-06T00:13:29;98637.06;;;-2.32;49.99
34081;BME280;20358;50.272;19.026;2023-04-06T00:16:35;98637.16;;;-2.37;50.19
34081;BME280;20358;50.272;19.026;2023-04-06T00:19:41;98629.47;;;-2.40;50.32
34081;BME280;20358;50.272;19.026;2023-04-06T00:22:50;98627.81;;;-2.44;50.36
34081;BME280;20358;50.272;19.026;2023-04-06T00:25:56;98624.47;;;-2.49;50.50
34081;BME280;20358;50.272;19.026;2023-04-06T00:29:03;98623.75;;;-2.57;50.10
34081;BME280;20358;50.272;19.026;2023-04-06T00:32:09;98627.16;;;-2.55;50.26
34081;BME280;20358;50.272;19.026;2023-04-06T00:35:16;98624.56;;;-2.57;50.91
34081;BME280;20358;50.272;19.026;2023-04-06T00:38:24;98626.34;;;-2.57;51.06
34081;BME280;20358;50.272;19.026;2023-04-06T00:41:31;98627.16;;;-2.57;50.65
34081;BME280;20358;50.272;19.026;2023-04-06T00:44:37;98620.31;;;-2.59;50.50
34081;BME280;20358;50.272;19.026;2023-04-06T00:47:43;98616.81;;;-2.55;50.62
34081;BME280;20358;50.272;19.026;2023-04-06T00:50:49;98620.31;;;-2.58;51.59
34081;BME280;20358;50.272;19.026;2023-04-06T00:53:59;98617.72;;;-2.59;50.75
34081;BME280;20358;50.272;19.026;2023-04-06T00:57:06;98619.44;;;-2.58;51.03
34081;BME280;20358;50.272;19.026;2023-04-06T01:00:14;98615.13;;;-2.59;51.84
34081;BME280;20358;50.272;19.026;2023-04-06T01:03:28;98611.66;;;-2.57;51.51
34081;BME280;20358;50.272;19.026;2023-04-06T01:06:34;98607.38;;;-2.58;51.40
34081;BME280;20358;50.272;19.026;2023-04-06T01:09:43;98607.22;;;-2.50;51.78
34081;BME280;20358;50.272;19.026;2023-04-06T01:12:56;98603.69;;;-2.46;51.56
34081;BME280;20358;50.272;19.026;2023-04-06T01:16:18;98605.38;;;-2.42;50.77
34081;BME280;20358;50.272;19.026;2023-04-06T01:19:40;98610.47;;;-2.39;51.23
34081;BME280;20358;50.272;19.026;2023-04-06T01:22:58;98614.69;;;-2.33;51.43
34081;BME280;20358;50.272;19.026;2023-04-06T01:26:05;98603.50;;;-2.34;51.19
34081;BME280;20358;50.272;19.026;2023-04-06T01:29:12;98603.44;;;-2.31;50.86
34081;BME280;20358;50.272;19.026;2023-04-06T01:32:19;98598.22;;;-2.29;51.22
34081;BME280;20358;50.272;19.026;2023-04-06T01:35:27;98605.00;;;-2.24;51.04
34081;BME280;20358;50.272;19.026;2023-04-06T01:38:48;98605.81;;;-2.20;51.19
34081;BME280;20358;50.272;19.026;2023-04-06T01:41:59;98594.56;;;-2.18;51.13
34081;BME280;20358;50.272;19.026;2023-04-06T01:45:08;98595.38;;;-2.17;50.38
34081;BME280;20358;50.272;19.026;2023-04-06T01:48:15;98602.38;;;-2.21;50.50
34081;BME280;20358;50.272;19.026;2023-04-06T01:51:23;98598.16;;;-2.26;51.03
34081;BME280;20358;50.272;19.026;2023-04-06T01:54:36;98595.69;;;-2.32;51.45
34081;BME280;20358;50.272;19.026;2023-04-06T01:57:50;98597.56;;;-2.40;51.44
34081;BME280;20358;50.272;19.026;2023-04-06T02:01:06;98595.94;;;-2.44;50.83
34081;BME280;20358;50.272;19.026;2023-04-06T02:04:25;98599.44;;;-2.48;51.87
34081;BME280;20358;50.272;19.026;2023-04-06T02:07:40;98597.94;;;-2.60;51.17
34081;BME280;20358;50.272;19.026;2023-04-06T02:10:53;98603.22;;;-2.66;51.75
34081;BME280;20358;50.272;19.026;2023-04-06T02:14:05;98598.16;;;-2.72;51.12
34081;BME280;20358;50.272;19.026;2023-04-06T02:17:19;98599.91;;;-2.73;51.13
34081;BME280;20358;50.272;19.026;2023-04-06T02:20:25;98595.69;;;-2.80;52.39
34081;BME280;20358;50.272;19.026;2023-04-06T02:23:31;98596.66;;;-2.85;52.35
34081;BME280;20358;50.272;19.026;2023-04-06T02:26:40;98596.72;;;-2.88;51.91
34081;BME280;20358;50.272;19.026;2023-04-06T02:29:46;98596.84;;;-2.97;52.19
34081;BME280;20358;50.272;19.026;2023-04-06T02:32:54;98592.59;;;-2.98;52.80
34081;BME280;20358;50.272;19.026;2023-04-06T02:36:02;98592.63;;;-3.01;52.26
34081;BME280;20358;50.272;19.026;2023-04-06T02:39:09;98595.28;;;-3.06;52.75
34081;BME280;20358;50.272;19.026;2023-04-06T02:42:19;98593.56;;;-3.07;51.94
34081;BME280;20358;50.272;19.026;2023-04-06T02:45:26;98592.63;;;-3.01;52.38
34081;BME280;20358;50.272;19.026;2023-04-06T02:48:35;98592.59;;;-2.98;52.07
34081;BME280;20358;50.272;19.026;2023-04-06T02:51:41;98582.44;;;-3.10;52.98
34081;BME280;20358;50.272;19.026;2023-04-06T02:54:54;98594.44;;;-3.06;52.46
34081;BME280;20358;50.272;19.026;2023-04-06T02:58:06;98596.13;;;-3.05;53.29
34081;BME280;20358;50.272;19.026;2023-04-06T03:01:23;98597.06;;;-3.09;53.12
34081;BME280;20358;50.272;19.026;2023-04-06T03:04:33;98597.06;;;-3.11;52.91
34081;BME280;20358;50.272;19.026;2023-04-06T03:07:46;98603.09;;;-3.10;52.21
34081;BME280;20358;50.272;19.026;2023-04-06T03:11:00;98592.81;;;-3.13;52.60
34081;BME280;20358;50.272;19.026;2023-04-06T03:14:15;98599.66;;;-3.09;52.39
34081;BME280;20358;50.272;19.026;2023-04-06T03:17:24;98599.66;;;-3.09;52.91
34081;BME280;20358;50.272;19.026;2023-04-06T03:20:36;98603.06;;;-3.07;52.86
34081;BME280;20358;50.272;19.026;2023-04-06T03:23:43;98596.19;;;-3.08;53.17
34081;BME280;20358;50.272;19.026;2023-04-06T03:26:53;98591.97;;;-3.16;52.21
34081;BME280;20358;50.272;19.026;2023-04-06T03:30:02;98602.22;;;-3.11;52.19
34081;BME280;20358;50.272;19.026;2023-04-06T03:33:10;98600.56;;;-3.13;52.33
34081;BME280;20358;50.272;19.026;2023-04-06T03:36:25;98615.22;;;-3.14;52.87
34081;BME280;20358;50.272;19.026;2023-04-06T03:39:34;98611.78;;;-3.14;52.23
34081;BME280;20358;50.272;19.026;2023-04-06T03:42:40;98608.38;;;-3.17;53.48
34081;BME280;20358;50.272;19.026;2023-04-06T03:45:52;98610.19;;;-3.22;53.40
34081;BME280;20358;50.272;19.026;2023-04-06T03:49:01;98602.47;;;-3.26;52.88
34081;BME280;20358;50.272;19.026;2023-04-06T03:52:08;98603.50;;;-3.35;52.85
34081;BME280;20358;50.272;19.026;2023-04-06T03:55:14;98609.53;;;-3.36;53.22
34081;BME280;20358;50.272;19.026;2023-04-06T03:58:21;98611.25;;;-3.36;52.36
34081;BME280;20358;50.272;19.026;2023-04-06T04:01:29;98610.38;;;-3.37;53.20
34081;BME280;20358;50.272;19.026;2023-04-06T04:04:38;98614.75;;;-3.42;53.26
34081;BME280;20358;50.272;19.026;2023-04-06T04:07:43;98615.66;;;-3.43;52.58
34081;BME280;20358;50.272;19.026;2023-04-06T04:10:50;98613.94;;;-3.44;53.43
34081;BME280;20358;50.272;19.026;2023-04-06T04:13:56;98611.41;;;-3.47;53.83
34081;BME280;20358;50.272;19.026;2023-04-06T04:17:07;98610.53;;;-3.46;53.81
34081;BME280;20358;50.272;19.026;2023-04-06T04:20:14;98616.56;;;-3.45;52.91
34081;BME280;20358;50.272;19.026;2023-04-06T04:23:21;98619.06;;;-3.41;52.45
34081;BME280;20358;50.272;19.026;2023-04-06T04:26:27;98615.53;;;-3.37;53.65
34081;BME280;20358;50.272;19.026;2023-04-06T04:29:34;98618.06;;;-3.31;52.30
34081;BME280;20358;50.272;19.026;2023-04-06T04:32:46;98618.88;;;-3.29;52.76
34081;BME280;20358;50.272;19.026;2023-04-06T04:35:56;98618.09;;;-3.34;52.57
34081;BME280;20358;50.272;19.026;2023-04-06T04:39:06;98614.00;;;-3.50;52.97
34081;BME280;20358;50.272;19.026;2023-04-06T04:42:17;98610.56;;;-3.49;52.99
34081;BME280;20358;50.272;19.026;2023-04-06T04:45:27;98613.00;;;-3.38;52.74
34081;BME280;20358;50.272;19.026;2023-04-06T04:48:42;98626.59;;;-3.26;52.26
34081;BME280;20358;50.272;19.026;2023-04-06T04:51:48;98618.66;;;-3.15;52.33
34081;BME280;20358;50.272;19.026;2023-04-06T04:55:06;98615.06;;;-3.05;51.94
34081;BME280;20358;50.272;19.026;2023-04-06T04:58:13;98615.75;;;-2.94;51.77
34081;BME280;20358;50.272;19.026;2023-04-06T05:01:33;98619.94;;;-2.87;50.91
34081;BME280;20358;50.272;19.026;2023-04-06T05:04:59;98614.69;;;-2.82;50.72
34081;BME280;20358;50.272;19.026;2023-04-06T05:08:05;98611.97;;;-2.73;51.05
34081;BME280;20358;50.272;19.026;2023-04-06T05:11:16;98613.63;;;-2.71;50.19
34081;BME280;20358;50.272;19.026;2023-04-06T05:14:31;98605.84;;;-2.69;51.13
34081;BME280;20358;50.272;19.026;2023-04-06T05:17:39;98597.13;;;-2.62;50.34
34081;BME280;20358;50.272;19.026;2023-04-06T05:20:53;98602.22;;;-2.59;50.87
34081;BME280;20358;50.272;19.026;2023-04-06T05:24:08;98610.69;;;-2.51;50.53
34081;BME280;20358;50.272;19.026;2023-04-06T05:27:19;98611.41;;;-2.41;49.76
34081;BME280;20358;50.272;19.026;2023-04-06T05:30:26;98601.63;;;-2.26;49.24
34081;BME280;20358;50.272;19.026;2023-04-06T05:33:34;98595.47;;;-2.20;49.48
34081;BME280;20358;50.272;19.026;2023-04-06T05:36:46;98608.25;;;-2.14;48.78
34081;BME280;20358;50.272;19.026;2023-04-06T05:39:57;98606.28;;;-2.02;49.07
34081;BME280;20358;50.272;19.026;2023-04-06T05:43:03;98609.47;;;-1.89;49.09
34081;BME280;20358;50.272;19.026;2023-04-06T05:46:12;98603.44;;;-1.88;48.30
34081;BME280;20358;50.272;19.026;2023-04-06T05:49:18;98592.97;;;-1.83;48.92
34081;BME280;20358;50.272;19.026;2023-04-06T05:52:27;98597.06;;;-1.73;48.93
34081;BME280;20358;50.272;19.026;2023-04-06T05:55:33;98600.56;;;-1.74;48.82
34081;BME280;20358;50.272;19.026;2023-04-06T05:58:48;98603.91;;;-1.69;47.80
34081;BME280;20358;50.272;19.026;2023-04-06T06:02:00;98593.59;;;-1.72;47.89
34081;BME280;20358;50.272;19.026;2023-04-06T06:05:11;98598.78;;;-1.72;47.74
34081;BME280;20358;50.272;19.026;2023-04-06T06:08:20;98593.50;;;-1.68;47.98
34081;BME280;20358;50.272;19.026;2023-04-06T06:11:28;98586.66;;;-1.70;48.20
34081;BME280;20358;50.272;19.026;2023-04-06T06:14:36;98595.84;;;-1.56;47.47
34081;BME280;20358;50.272;19.026;2023-04-06T06:17:43;98584.47;;;-1.50;47.97
34081;BME280;20358;50.272;19.026;2023-04-06T06:20:49;98586.88;;;-1.41;46.65
34081;BME280;20358;50.272;19.026;2023-04-06T06:23:59;98588.59;;;-1.42;46.64
34081;BME280;20358;50.272;19.026;2023-04-06T06:27:05;98595.81;;;-1.19;46.92
34081;BME280;20358;50.272;19.026;2023-04-06T06:30:13;98588.22;;;-1.25;46.57
34081;BME280;20358;50.272;19.026;2023-04-06T06:33:24;98601.94;;;-1.21;46.42
34081;BME280;20358;50.272;19.026;2023-04-06T06:36:33;98595.00;;;-1.19;46.16
34081;BME280;20358;50.272;19.026;2023-04-06T06:39:45;98591.25;;;-1.08;46.56
34081;BME280;20358;50.272;19.026;2023-04-06T06:42:54;98593.56;;;-0.96;45.69
34081;BME280;20358;50.272;19.026;2023-04-06T06:46:06;98595.03;;;-0.86;45.56
34081;BME280;20358;50.272;19.026;2023-04-06T06:49:16;98601.03;;;-0.84;45.11
34081;BME280;20358;50.272;19.026;2023-04-06T06:52:21;98603.75;;;-0.90;45.24
34081;BME280;20358;50.272;19.026;2023-04-06T06:55:31;98598.59;;;-0.90;45.15
34081;BME280;20358;50.272;19.026;2023-04-06T06:58:37;98594.66;;;-0.72;45.45
34081;BME280;20358;50.272;19.026;2023-04-06T07:01:44;98602.84;;;-0.53;45.31
34081;BME280;20358;50.272;19.026;2023-04-06T07:04:50;98598.00;;;-0.33;45.21
34081;BME280;20358;50.272;19.026;2023-04-06T07:07:57;98602.22;;;-0.29;44.84
34081;BME280;20358;50.272;19.026;2023-04-06T07:11:06;98607.59;;;-0.05;44.94
34081;BME280;20358;50.272;19.026;2023-04-06T07:14:12;98594.06;;;0.15;43.49
34081;BME280;20358;50.272;19.026;2023-04-06T07:17:18;98604.38;;;0.18;43.71
34081;BME280;20358;50.272;19.026;2023-04-06T07:20:25;98598.72;;;0.33;43.52
34081;BME280;20358;50.272;19.026;2023-04-06T07:23:31;98610.47;;;0.46;43.71
34081;BME280;20358;50.272;19.026;2023-04-06T07:26:41;98603.63;;;0.42;43.37
34081;BME280;20358;50.272;19.026;2023-04-06T07:29:48;98611.78;;;0.60;43.52
34081;BME280;20358;50.272;19.026;2023-04-06T07:32:55;98601.47;;;0.56;43.40
34081;BME280;20358;50.272;19.026;2023-04-06T07:36:03;98601.41;;;0.60;42.30
34081;BME280;20358;50.272;19.026;2023-04-06T07:39:10;98604.63;;;0.68;42.89
34081;BME280;20358;50.272;19.026;2023-04-06T07:42:19;98600.72;;;0.81;42.23
34081;BME280;20358;50.272;19.026;2023-04-06T07:45:26;98607.91;;;0.73;42.23
34081;BME280;20358;50.272;19.026;2023-04-06T07:48:32;98600.22;;;0.40;42.38
34081;BME280;20358;50.272;19.026;2023-04-06T07:51:41;98597.09;;;0.58;42.43
34081;BME280;20358;50.272;19.026;2023-04-06T07:54:47;98593.94;;;0.47;42.73
34081;BME280;20358;50.272;19.026;2023-04-06T07:57:58;98600.31;;;0.37;42.65
34081;BME280;20358;50.272;19.026;2023-04-06T08:01:04;98607.97;;;0.42;42.69
34081;BME280;20358;50.272;19.026;2023-04-06T08:04:12;98599.69;;;0.29;42.80
34081;BME280;20358;50.272;19.026;2023-04-06T08:07:18;98603.53;;;0.16;42.49
34081;BME280;20358;50.272;19.026;2023-04-06T08:10:24;98606.75;;;0.24;42.45
34081;BME280;20358;50.272;19.026;2023-04-06T08:13:33;98591.31;;;0.20;42.90
34081;BME280;20358;50.272;19.026;2023-04-06T08:16:40;98592.72;;;0.31;43.04
34081;BME280;20358;50.272;19.026;2023-04-06T08:19:45;98598.25;;;0.48;42.94
34081;BME280;20358;50.272;19.026;2023-04-06T08:22:52;98617.06;;;0.56;42.09
34081;BME280;20358;50.272;19.026;2023-04-06T08:25:58;98592.88;;;0.54;41.99
34081;BME280;20358;50.272;19.026;2023-04-06T08:29:08;98594.22;;;0.68;42.54
34081;BME280;20358;50.272;19.026;2023-04-06T08:32:14;98593.38;;;0.66;42.00
34081;BME280;20358;50.272;19.026;2023-04-06T08:35:20;98594.09;;;0.71;42.14
34081;BME280;20358;50.272;19.026;2023-04-06T08:38:26;98598.81;;;0.58;42.30
34081;BME280;20358;50.272;19.026;2023-04-06T08:41:33;98600.84;;;0.48;42.63
34081;BME280;20358;50.272;19.026;2023-04-06T08:44:44;98599.84;;;0.52;42.03
34081;BME280;20358;50.272;19.026;2023-04-06T08:47:52;98590.31;;;0.53;42.06
34081;BME280;20358;50.272;19.026;2023-04-06T08:50:59;98605.25;;;0.46;41.90
34081;BME280;20358;50.272;19.026;2023-04-06T08:54:07;98585.44;;;0.42;42.47
34081;BME280;20358;50.272;19.026;2023-04-06T08:57:15;98595.03;;;0.40;42.15
34081;BME280;20358;50.272;19.026;2023-04-06T09:00:28;98584.09;;;0.29;42.37
34081;BME280;20358;50.272;19.026;2023-04-06T09:03:37;98576.94;;;0.37;42.36
34081;BME280;20358;50.272;19.026;2023-04-06T09:06:46;98581.88;;;0.46;42.31
34081;BME280;20358;50.272;19.026;2023-04-06T09:09:52;98596.75;;;0.41;42.80
34081;BME280;20358;50.272;19.026;2023-04-06T09:13:05;98582.81;;;0.44;43.04
34081;BME280;20358;50.272;19.026;2023-04-06T09:16:14;98573.69;;;0.58;42.55
34081;BME280;20358;50.272;19.026;2023-04-06T09:19:20;98573.47;;;0.38;43.13
34081;BME280;20358;50.272;19.026;2023-04-06T09:22:35;98577.47;;;0.48;43.36
34081;BME280;20358;50.272;19.026;2023-04-06T09:25:43;98575.69;;;0.50;43.14
34081;BME280;20358;50.272;19.026;2023-04-06T09:28:50;98582.09;;;0.67;42.45
34081;BME280;20358;50.272;19.026;2023-04-06T09:32:06;98468.44;;;-0.10;42.66
34081;BME280;20358;50.272;19.026;2023-04-06T09:35:13;98567.22;;;0.72;42.25
34081;BME280;20358;50.272;19.026;2023-04-06T09:38:20;98569.63;;;0.78;42.61
34081;BME280;20358;50.272;19.026;2023-04-06T09:41:28;98557.47;;;0.78;41.63
34081;BME280;20358;50.272;19.026;2023-04-06T09:44:35;98552.25;;;0.78;41.41
34081;BME280;20358;50.272;19.026;2023-04-06T09:47:45;98575.56;;;0.81;42.11
34081;BME280;20358;50.272;19.026;2023-04-06T09:50:59;98549.88;;;0.72;41.70
34081;BME280;20358;50.272;19.026;2023-04-06T09:54:11;98553.81;;;0.84;41.54
34081;BME280;20358;50.272;19.026;2023-04-06T09:57:27;98553.31;;;0.99;42.16
34081;BME280;20358;50.272;19.026;2023-04-06T10:00:44;98542.22;;;1.20;41.28
34081;BME280;20358;50.272;19.026;2023-04-06T10:04:09;98560.63;;;1.14;40.57
34081;BME280;20358;50.272;19.026;2023-04-06T10:07:27;98534.19;;;1.01;40.96
34081;BME280;20358;50.272;19.026;2023-04-06T10:10:34;98521.31;;;1.23;40.81
34081;BME280;20358;50.272;19.026;2023-04-06T10:13:40;98539.22;;;1.06;41.15
34081;BME280;20358;50.272;19.026;2023-04-06T10:16:48;98548.84;;;1.04;41.16
34081;BME280;20358;50.272;19.026;2023-04-06T10:20:04;98542.72;;;1.05;41.64
34081;BME280;20358;50.272;19.026;2023-04-06T10:23:25;98553.44;;;0.96;40.72
34081;BME280;20358;50.272;19.026;2023-04-06T10:26:37;98550.63;;;0.76;41.19
34081;BME280;20358;50.272;19.026;2023-04-06T10:29:46;98520.63;;;0.92;41.72
34081;BME280;20358;50.272;19.026;2023-04-06T10:32:54;98526.06;;;1.10;40.99
34081;BME280;20358;50.272;19.026;2023-04-06T10:36:13;98524.81;;;1.22;41.13
34081;BME280;20358;50.272;19.026;2023-04-06T10:39:25;98511.00;;;1.20;40.98
34081;BME280;20358;50.272;19.026;2023-04-06T10:42:37;98492.06;;;1.16;40.63
34081;BME280;20358;50.272;19.026;2023-04-06T10:45:44;98514.09;;;1.31;40.56
34081;BME280;20358;50.272;19.026;2023-04-06T10:48:51;98521.50;;;1.42;40.39
34081;BME280;20358;50.272;19.026;2023-04-06T10:52:00;98518.97;;;1.40;40.52
34081;BME280;20358;50.272;19.026;2023-04-06T10:55:08;98516.25;;;1.43;39.51
34081;BME280;20358;50.272;19.026;2023-04-06T10:58:15;98511.28;;;1.37;40.03
34081;BME280;20358;50.272;19.026;2023-04-06T11:01:23;98500.88;;;1.37;40.89
34081;BME280;20358;50.272;19.026;2023-04-06T11:04:30;98493.88;;;1.62;40.04
34081;BME280;20358;50.272;19.026;2023-04-06T11:07:40;98493.41;;;1.74;39.23
34081;BME280;20358;50.272;19.026;2023-04-06T11:10:46;98503.72;;;1.77;39.69
34081;BME280;20358;50.272;19.026;2023-04-06T11:13:54;98497.56;;;1.80;40.24
34081;BME280;20358;50.272;19.026;2023-04-06T11:17:01;98494.25;;;2.00;39.52
34081;BME280;20358;50.272;19.026;2023-04-06T11:20:11;98495.16;;;1.99;38.93
34081;BME280;20358;50.272;19.026;2023-04-06T11:23:29;98486.94;;;1.86;40.34
34081;BME280;20358;50.272;19.026;2023-04-06T11:26:40;98490.53;;;2.05;38.81
34081;BME280;20358;50.272;19.026;2023-04-06T11:29:51;98487.41;;;2.19;38.96
34081;BME280;20358;50.272;19.026;2023-04-06T11:33:01;98490.91;;;2.41;38.57
34081;BME280;20358;50.272;19.026;2023-04-06T11:36:08;98481.31;;;2.41;38.46
34081;BME280;20358;50.272;19.026;2023-04-06T11:39:22;98481.19;;;2.44;39.14
34081;BME280;20358;50.272;19.026;2023-04-06T11:42:29;98479.50;;;2.22;38.97
34081;BME280;20358;50.272;19.026;2023-04-06T11:45:39;98469.25;;;2.39;39.96
34081;BME280;20358;50.272;19.026;2023-04-06T11:48:47;98471.13;;;2.57;39.58
34081;BME280;20358;50.272;19.026;2023-04-06T11:51:54;98463.72;;;2.68;39.63
34081;BME280;20358;50.272;19.026;2023-04-06T11:55:11;98473.06;;;2.74;38.82
34081;BME280;20358;50.272;19.026;2023-04-06T11:58:19;98468.69;;;2.74;39.36
34081;BME280;20358;50.272;19.026;2023-04-06T12:01:26;98470.13;;;2.81;39.12
34081;BME280;20358;50.272;19.026;2023-04-06T12:04:38;98464.38;;;2.73;37.61
34081;BME280;20358;50.272;19.026;2023-04-06T12:07:44;98474.16;;;2.68;38.23
34081;BME280;20358;50.272;19.026;2023-04-06T12:10:54;98465.19;;;2.54;38.77
34081;BME280;20358;50.272;19.026;2023-04-06T12:13:59;98471.63;;;2.45;39.10
34081;BME280;20358;50.272;19.026;2023-04-06T12:17:07;98472.84;;;2.15;38.70
34081;BME280;20358;50.272;19.026;2023-04-06T12:20:13;98458.41;;;2.06;39.30
34081;BME280;20358;50.272;19.026;2023-04-06T12:23:28;98446.66;;;2.18;39.53
34081;BME280;20358;50.272;19.026;2023-04-06T12:26:37;98456.44;;;1.90;40.41
34081;BME280;20358;50.272;19.026;2023-04-06T12:29:45;98450.28;;;1.91;40.52
34081;BME280;20358;50.272;19.026;2023-04-06T12:32:50;98440.91;;;1.87;41.28
34081;BME280;20358;50.272;19.026;2023-04-06T12:35:57;98446.69;;;1.95;41.04
34081;BME280;20358;50.272;19.026;2023-04-06T12:39:04;98468.88;;;1.81;41.48
34081;BME280;20358;50.272;19.026;2023-04-06T12:42:14;98448.94;;;1.80;41.49
34081;BME280;20358;50.272;19.026;2023-04-06T12:45:19;98453.25;;;1.81;42.54
34081;BME280;20358;50.272;19.026;2023-04-06T12:48:26;98441.25;;;1.77;42.57
34081;BME280;20358;50.272;19.026;2023-04-06T12:51:32;98431.59;;;1.79;42.14
34081;BME280;20358;50.272;19.026;2023-04-06T12:54:38;98442.66;;;1.63;43.06
34081;BME280;20358;50.272;19.026;2023-04-06T12:57:47;98462.84;;;1.56;44.51
34081;BME280;20358;50.272;19.026;2023-04-06T13:00:54;98437.19;;;1.47;43.96
34081;BME280;20358;50.272;19.026;2023-04-06T13:04:05;98442.16;;;1.53;44.92
34081;BME280;20358;50.272;19.026;2023-04-06T13:07:11;98430.91;;;1.53;43.65
34081;BME280;20358;50.272;19.026;2023-04-06T13:10:17;98432.75;;;1.49;45.10
34081;BME280;20358;50.272;19.026;2023-04-06T13:13:28;98438.63;;;1.31;46.87
34081;BME280;20358;50.272;19.026;2023-04-06T13:16:34;98426.38;;;1.35;46.46
34081;BME280;20358;50.272;19.026;2023-04-06T13:19:41;98323.22;;;0.63;46.39
34081;BME280;20358;50.272;19.026;2023-04-06T13:22:47;98454.72;;;1.17;46.86
34081;BME280;20358;50.272;19.026;2023-04-06T13:25:58;98421.81;;;0.92;48.86
34081;BME280;20358;50.272;19.026;2023-04-06T13:29:08;98454.34;;;0.79;50.75
34081;BME280;20358;50.272;19.026;2023-04-06T13:32:14;98434.16;;;0.61;50.99
34081;BME280;20358;50.272;19.026;2023-04-06T13:35:20;98438.72;;;0.54;51.62
34081;BME280;20358;50.272;19.026;2023-04-06T13:38:27;98421.78;;;0.42;53.16
34081;BME280;20358;50.272;19.026;2023-04-06T13:41:33;98434.38;;;0.28;53.17
34081;BME280;20358;50.272;19.026;2023-04-06T13:44:43;98420.94;;;0.16;53.58
34081;BME280;20358;50.272;19.026;2023-04-06T13:47:49;98427.78;;;0.18;53.98
34081;BME280;20358;50.272;19.026;2023-04-06T13:50:55;98425.28;;;0.15;54.29
34081;BME280;20358;50.272;19.026;2023-04-06T13:54:01;98408.69;;;0.19;55.03
34081;BME280;20358;50.272;19.026;2023-04-06T13:57:08;98406.78;;;0.24;54.89
34081;BME280;20358;50.272;19.026;2023-04-06T14:00:17;98415.50;;;0.23;54.73
34081;BME280;20358;50.272;19.026;2023-04-06T14:03:24;98415.59;;;0.20;55.57
34081;BME280;20358;50.272;19.026;2023-04-06T14:06:30;98414.09;;;0.13;55.91
34081;BME280;20358;50.272;19.026;2023-04-06T14:09:36;98417.56;;;0.12;56.51
34081;BME280;20358;50.272;19.026;2023-04-06T14:12:43;98357.75;;;-0.11;55.32
34081;BME280;20358;50.272;19.026;2023-04-06T14:15:55;98393.19;;;0.16;56.38
34081;BME280;20358;50.272;19.026;2023-04-06T14:19:01;98405.19;;;0.20;56.33
34081;BME280;20358;50.272;19.026;2023-04-06T14:22:08;98401.81;;;0.18;56.54
34081;BME280;20358;50.272;19.026;2023-04-06T14:25:13;98398.38;;;0.16;56.51
34081;BME280;20358;50.272;19.026;2023-04-06T14:28:21;98398.09;;;0.25;56.16
34081;BME280;20358;50.272;19.026;2023-04-06T14:31:30;98401.50;;;0.27;55.83
34081;BME280;20358;50.272;19.026;2023-04-06T14:34:37;98395.66;;;0.21;55.55
34081;BME280;20358;50.272;19.026;2023-04-06T14:37:42;98398.50;;;0.39;55.12
34081;BME280;20358;50.272;19.026;2023-04-06T14:40:49;98397.31;;;0.49;55.10
34081;BME280;20358;50.272;19.026;2023-04-06T14:43:55;98386.84;;;0.51;55.23
34081;BME280;20358;50.272;19.026;2023-04-06T14:47:04;98413.09;;;0.43;55.34
34081;BME280;20358;50.272;19.026;2023-04-06T14:50:10;98390.69;;;0.39;55.85
34081;BME280;20358;50.272;19.026;2023-04-06T14:53:16;98400.91;;;0.45;55.64
34081;BME280;20358;50.272;19.026;2023-04-06T14:56:23;98395.00;;;0.40;55.11
34081;BME280;20358;50.272;19.026;2023-04-06T14:59:30;98398.75;;;0.32;56.17
34081;BME280;20358;50.272;19.026;2023-04-06T15:02:43;98393.75;;;0.26;56.36
34081;BME280;20358;50.272;19.026;2023-04-06T15:05:50;98391.28;;;0.21;57.00
34081;BME280;20358;50.272;19.026;2023-04-06T15:08:55;98398.69;;;0.07;56.84
34081;BME280;20358;50.272;19.026;2023-04-06T15:12:03;98392.88;;;-0.01;56.26
34081;BME280;20358;50.272;19.026;2023-04-06T15:15:10;98398.09;;;-0.01;57.08
34081;BME280;20358;50.272;19.026;2023-04-06T15:18:21;98402.47;;;-0.03;56.74
34081;BME280;20358;50.272;19.026;2023-04-06T15:21:29;98395.56;;;-0.04;57.16
34081;BME280;20358;50.272;19.026;2023-04-06T15:24:39;98398.16;;;-0.04;57.15
34081;BME280;20358;50.272;19.026;2023-04-06T15:27:47;98398.97;;;-0.02;57.02
34081;BME280;20358;50.272;19.026;2023-04-06T15:30:56;98402.47;;;-0.03;56.10
34081;BME280;20358;50.272;19.026;2023-04-06T15:34:12;98387.63;;;0.01;56.72
34081;BME280;20358;50.272;19.026;2023-04-06T15:37:21;98397.75;;;0.10;56.22
34081;BME280;20358;50.272;19.026;2023-04-06T15:40:28;98390.00;;;0.08;56.05
34081;BME280;20358;50.272;19.026;2023-04-06T15:43:36;98387.91;;;0.19;56.17
34081;BME280;20358;50.272;19.026;2023-04-06T15:46:43;98382.38;;;0.30;55.49
34081;BME280;20358;50.272;19.026;2023-04-06T15:49:54;98382.09;;;0.37;54.68
34081;BME280;20358;50.272;19.026;2023-04-06T15:53:00;98396.66;;;0.43;54.83
34081;BME280;20358;50.272;19.026;2023-04-06T15:56:07;98392.59;;;0.34;54.26
34081;BME280;20358;50.272;19.026;2023-04-06T15:59:13;98392.66;;;0.33;54.27
34081;BME280;20358;50.272;19.026;2023-04-06T16:02:20;98399.59;;;0.32;54.70
34081;BME280;20358;50.272;19.026;2023-04-06T16:05:31;98392.72;;;0.31;55.64
34081;BME280;20358;50.272;19.026;2023-04-06T16:08:55;98391.56;;;0.40;55.01
34081;BME280;20358;50.272;19.026;2023-04-06T16:12:01;98389.72;;;0.43;56.07
34081;BME280;20358;50.272;19.026;2023-04-06T16:15:08;98409.38;;;0.50;56.00
34081;BME280;20358;50.272;19.026;2023-04-06T16:18:14;98401.00;;;0.42;55.93
34081;BME280;20358;50.272;19.026;2023-04-06T16:21:24;98410.50;;;0.43;56.08
34081;BME280;20358;50.272;19.026;2023-04-06T16:24:30;98394.22;;;0.38;57.40
34081;BME280;20358;50.272;19.026;2023-04-06T16:27:37;98401.31;;;0.33;57.28
34081;BME280;20358;50.272;19.026;2023-04-06T16:30:44;98421.56;;;0.22;58.06
34081;BME280;20358;50.272;19.026;2023-04-06T16:33:52;98422.84;;;0.09;59.09